As Victoria — A8SO7 — position and weather

sailwx.info

Track history (hours):
 
Tides and Currents Weather Stations Pressure Air Temp Water Temp Dewpoint Dewpoint Depression Visibility Wind Speed Wind Dir Waves Ship Positions

As Victoria

Last reported at 2017-Sep-22 02:00 UTC. Time now 2017-Oct-19 20:22 UTC.
Position N 01°14' E 103°56'.
Warning: this ship's position is 27 days out of date.

Length 190 m; draft 13.7 m.

MMSI: 636091769.

Date/timePositionNaut miles runAvg speedWind from/ knotsBaromVisibWave heightAir tempDewpointWater temp
2017-Sep-22 02:00N 01°14' E 103°56'1 1.9
2017-Sep-22 01:30N 01°15' E 103°57'2 4.4
2017-Sep-22 00:58N 01°17' E 103°58'0 0.0
2017-Sep-22 00:22N 01°17' E 103°58'0 0.0
2017-Sep-21 23:58N 01°17' E 103°58'0 0.1
2017-Sep-21 21:55N 01°17' E 103°58'3517.6
2017-Sep-21 19:56N 01°16' E 103°23'611.4
2017-Sep-21 19:22N 01°14' E 103°29'411.4
2017-Sep-21 19:00N 01°13' E 103°33'611.0
2017-Sep-21 18:30N 01°12' E 103°38'510.5
2017-Sep-21 18:00N 01°09' E 103°43'5 9.5
2017-Sep-21 17:30N 01°10' E 103°48'611.3
2017-Sep-21 16:58N 01°13' E 103°53'612.0
2017-Sep-21 16:27N 01°17' E 103°58'0 0.0
2017-Sep-21 13:35N 01°17' E 103°58'0 0.0
2017-Sep-21 13:07N 01°17' E 103°58'0 0.0
2017-Sep-21 12:40N 01°17' E 103°58'0 0.5
2017-Sep-21 12:25N 01°17' E 103°58'1 0.7
2017-Sep-21 11:24N 01°16' E 103°58'0 0.8
2017-Sep-21 11:00N 01°16' E 103°58'1 1.1
2017-Sep-21 10:30N 01°16' E 103°59'1 1.2
2017-Sep-21 10:00N 01°16' E 103°59'1 1.4
2017-Sep-21 09:30N 01°16' E 104°00'2 0.3
2017-Sep-21 02:28N 01°17' E 103°58'0 0.0
2017-Sep-21 01:49N 01°17' E 103°58'0 0.2
2017-Sep-21 01:19N 01°17' E 103°58'0 1.3
2017-Sep-21 01:00N 01°16' E 103°58'2 3.5
2017-Sep-21 00:30N 01°16' E 103°60'49511.1
2017-Sep-19 04:00S 03°48' E 110°30'   160 / 91013.3 5.4 30.222.6
Track history (hours):
 
Tides and Currents Weather Stations Pressure Air Temp Water Temp Dewpoint Dewpoint Depression Visibility Wind Speed Wind Dir Waves Ship Positions

As Victoria

Last reported at 2017-Sep-22 02:00 UTC. Time now 2017-Oct-19 20:22 UTC.
Position N 01°14' E 103°56'.
Warning: this ship's position is 27 days out of date.

Length 190 m; draft 13.7 m.

MMSI: 636091769.

Date/timePositionNaut miles runAvg speedWind from/ knotsBaromVisibWave heightAir tempDewpointWater temp
2017-Sep-22 02:00N 01°14' E 103°56'1 1.9
2017-Sep-22 01:30N 01°15' E 103°57'2 4.4
2017-Sep-22 00:58N 01°17' E 103°58'0 0.0
2017-Sep-22 00:22N 01°17' E 103°58'0 0.0
2017-Sep-21 23:58N 01°17' E 103°58'0 0.1
2017-Sep-21 21:55N 01°17' E 103°58'3517.6
2017-Sep-21 19:56N 01°16' E 103°23'611.4
2017-Sep-21 19:22N 01°14' E 103°29'411.4
2017-Sep-21 19:00N 01°13' E 103°33'611.0
2017-Sep-21 18:30N 01°12' E 103°38'510.5
2017-Sep-21 18:00N 01°09' E 103°43'5 9.5
2017-Sep-21 17:30N 01°10' E 103°48'611.3
2017-Sep-21 16:58N 01°13' E 103°53'612.0
2017-Sep-21 16:27N 01°17' E 103°58'0 0.0
2017-Sep-21 13:35N 01°17' E 103°58'0 0.0
2017-Sep-21 13:07N 01°17' E 103°58'0 0.0
2017-Sep-21 12:40N 01°17' E 103°58'0 0.5
2017-Sep-21 12:25N 01°17' E 103°58'1 0.7
2017-Sep-21 11:24N 01°16' E 103°58'0 0.8
2017-Sep-21 11:00N 01°16' E 103°58'1 1.1
2017-Sep-21 10:30N 01°16' E 103°59'1 1.2
2017-Sep-21 10:00N 01°16' E 103°59'1 1.4
2017-Sep-21 09:30N 01°16' E 104°00'2 0.3
2017-Sep-21 02:28N 01°17' E 103°58'0 0.0
2017-Sep-21 01:49N 01°17' E 103°58'0 0.2
2017-Sep-21 01:19N 01°17' E 103°58'0 1.3
2017-Sep-21 01:00N 01°16' E 103°58'2 3.5
2017-Sep-21 00:30N 01°16' E 103°60'49511.1
2017-Sep-19 04:00S 03°48' E 110°30'   160 / 91013.3 5.4 30.222.6

Dump ship's entire track history